sensor_id;sensor_type;location;lat;lon;timestamp;P1;durP1;ratioP1;P2;durP2;ratioP2
5163;SDS011;2601;50.224;10.126;2022-10-16T00:01:29;2.13;;;1.93;;
5163;SDS011;2601;50.224;10.126;2022-10-16T00:03:56;3.27;;;1.87;;
5163;SDS011;2601;50.224;10.126;2022-10-16T00:06:23;3.87;;;2.57;;
5163;SDS011;2601;50.224;10.126;2022-10-16T00:08:50;5.60;;;1.73;;
5163;SDS011;2601;50.224;10.126;2022-10-16T00:11:18;2.77;;;2.07;;
5163;SDS011;2601;50.224;10.126;2022-10-16T00:13:46;2.63;;;2.03;;
5163;SDS011;2601;50.224;10.126;2022-10-16T00:16:14;2.27;;;2.07;;
5163;SDS011;2601;50.224;10.126;2022-10-16T00:18:40;3.10;;;2.37;;
5163;SDS011;2601;50.224;10.126;2022-10-16T00:21:08;4.60;;;2.50;;
5163;SDS011;2601;50.224;10.126;2022-10-16T00:23:35;1.90;;;1.63;;
5163;SDS011;2601;50.224;10.126;2022-10-16T00:26:02;6.00;;;2.27;;
5163;SDS011;2601;50.224;10.126;2022-10-16T00:28:31;3.90;;;2.80;;
5163;SDS011;2601;50.224;10.126;2022-10-16T00:30:57;2.20;;;2.00;;
5163;SDS011;2601;50.224;10.126;2022-10-16T00:33:23;8.00;;;2.17;;
5163;SDS011;2601;50.224;10.126;2022-10-16T00:35:50;4.27;;;1.43;;
5163;SDS011;2601;50.224;10.126;2022-10-16T00:38:17;2.50;;;1.93;;
5163;SDS011;2601;50.224;10.126;2022-10-16T00:40:42;4.30;;;2.63;;
5163;SDS011;2601;50.224;10.126;2022-10-16T00:43:32;2.80;;;1.60;;
5163;SDS011;2601;50.224;10.126;2022-10-16T00:45:58;2.30;;;2.10;;
5163;SDS011;2601;50.224;10.126;2022-10-16T00:48:25;1.90;;;1.70;;
5163;SDS011;2601;50.224;10.126;2022-10-16T00:50:52;3.23;;;1.77;;
5163;SDS011;2601;50.224;10.126;2022-10-16T00:53:18;2.70;;;1.53;;
5163;SDS011;2601;50.224;10.126;2022-10-16T00:55:44;3.53;;;1.60;;
5163;SDS011;2601;50.224;10.126;2022-10-16T00:58:11;2.23;;;1.27;;
5163;SDS011;2601;50.224;10.126;2022-10-16T01:00:37;2.33;;;1.90;;
5163;SDS011;2601;50.224;10.126;2022-10-16T01:03:22;5.70;;;1.60;;
5163;SDS011;2601;50.224;10.126;2022-10-16T01:05:51;5.20;;;1.40;;
5163;SDS011;2601;50.224;10.126;2022-10-16T01:11:35;1.60;;;1.50;;
5163;SDS011;2601;50.224;10.126;2022-10-16T01:17:07;12.30;;;1.87;;
5163;SDS011;2601;50.224;10.126;2022-10-16T01:19:51;9.17;;;2.77;;
5163;SDS011;2601;50.224;10.126;2022-10-16T01:22:28;1.50;;;1.40;;
5163;SDS011;2601;50.224;10.126;2022-10-16T01:25:04;1.60;;;1.50;;
5163;SDS011;2601;50.224;10.126;2022-10-16T01:27:35;3.80;;;2.20;;
5163;SDS011;2601;50.224;10.126;2022-10-16T01:30:16;1.83;;;1.73;;
5163;SDS011;2601;50.224;10.126;2022-10-16T01:32:58;5.73;;;2.27;;
5163;SDS011;2601;50.224;10.126;2022-10-16T01:35:37;4.67;;;1.80;;
5163;SDS011;2601;50.224;10.126;2022-10-16T01:40:51;2.33;;;2.13;;
5163;SDS011;2601;50.224;10.126;2022-10-16T01:43:36;3.70;;;1.53;;
5163;SDS011;2601;50.224;10.126;2022-10-16T01:46:10;1.67;;;1.57;;
5163;SDS011;2601;50.224;10.126;2022-10-16T01:48:38;1.70;;;1.60;;
5163;SDS011;2601;50.224;10.126;2022-10-16T01:51:05;3.60;;;2.10;;
5163;SDS011;2601;50.224;10.126;2022-10-16T01:53:34;3.57;;;2.10;;
5163;SDS011;2601;50.224;10.126;2022-10-16T01:56:01;3.00;;;1.60;;
5163;SDS011;2601;50.224;10.126;2022-10-16T01:58:33;2.63;;;2.10;;
5163;SDS011;2601;50.224;10.126;2022-10-16T02:01:01;2.23;;;1.83;;
5163;SDS011;2601;50.224;10.126;2022-10-16T02:03:29;2.47;;;2.00;;
5163;SDS011;2601;50.224;10.126;2022-10-16T02:05:56;2.57;;;1.60;;
5163;SDS011;2601;50.224;10.126;2022-10-16T02:08:24;1.90;;;1.60;;
5163;SDS011;2601;50.224;10.126;2022-10-16T02:10:54;1.47;;;1.37;;
5163;SDS011;2601;50.224;10.126;2022-10-16T02:15:57;1.80;;;1.70;;
5163;SDS011;2601;50.224;10.126;2022-10-16T02:18:23;2.33;;;2.23;;
5163;SDS011;2601;50.224;10.126;2022-10-16T02:23:23;4.90;;;1.73;;
5163;SDS011;2601;50.224;10.126;2022-10-16T02:25:54;3.40;;;1.50;;
5163;SDS011;2601;50.224;10.126;2022-10-16T02:28:24;1.70;;;1.60;;
5163;SDS011;2601;50.224;10.126;2022-10-16T02:31:04;2.13;;;1.70;;
5163;SDS011;2601;50.224;10.126;2022-10-16T02:33:34;1.67;;;1.57;;
5163;SDS011;2601;50.224;10.126;2022-10-16T02:36:03;1.57;;;1.47;;
5163;SDS011;2601;50.224;10.126;2022-10-16T02:38:30;1.80;;;1.70;;
5163;SDS011;2601;50.224;10.126;2022-10-16T02:40:56;3.10;;;2.10;;
5163;SDS011;2601;50.224;10.126;2022-10-16T02:43:22;6.00;;;1.47;;
5163;SDS011;2601;50.224;10.126;2022-10-16T02:45:47;2.17;;;1.97;;
5163;SDS011;2601;50.224;10.126;2022-10-16T02:48:13;2.20;;;1.53;;
5163;SDS011;2601;50.224;10.126;2022-10-16T02:50:39;5.57;;;1.70;;
5163;SDS011;2601;50.224;10.126;2022-10-16T02:53:05;1.57;;;1.40;;
5163;SDS011;2601;50.224;10.126;2022-10-16T02:55:32;1.33;;;1.23;;
5163;SDS011;2601;50.224;10.126;2022-10-16T02:57:58;1.33;;;1.23;;
5163;SDS011;2601;50.224;10.126;2022-10-16T03:00:23;1.30;;;1.20;;
5163;SDS011;2601;50.224;10.126;2022-10-16T03:02:49;1.33;;;1.20;;
5163;SDS011;2601;50.224;10.126;2022-10-16T03:05:16;1.30;;;1.13;;
5163;SDS011;2601;50.224;10.126;2022-10-16T03:07:42;1.07;;;0.97;;
5163;SDS011;2601;50.224;10.126;2022-10-16T03:10:08;3.77;;;1.13;;
5163;SDS011;2601;50.224;10.126;2022-10-16T03:12:33;1.60;;;1.10;;
5163;SDS011;2601;50.224;10.126;2022-10-16T03:14:59;1.80;;;1.30;;
5163;SDS011;2601;50.224;10.126;2022-10-16T03:17:25;2.80;;;1.27;;
5163;SDS011;2601;50.224;10.126;2022-10-16T03:19:51;1.50;;;1.10;;
5163;SDS011;2601;50.224;10.126;2022-10-16T03:22:17;1.57;;;1.47;;
5163;SDS011;2601;50.224;10.126;2022-10-16T03:24:43;1.60;;;1.50;;
5163;SDS011;2601;50.224;10.126;2022-10-16T03:27:08;3.43;;;1.37;;
5163;SDS011;2601;50.224;10.126;2022-10-16T03:29:34;1.70;;;1.60;;
5163;SDS011;2601;50.224;10.126;2022-10-16T03:32:00;2.00;;;1.80;;
5163;SDS011;2601;50.224;10.126;2022-10-16T03:34:26;3.70;;;1.67;;
5163;SDS011;2601;50.224;10.126;2022-10-16T03:36:53;2.90;;;1.80;;
5163;SDS011;2601;50.224;10.126;2022-10-16T03:39:18;1.70;;;1.60;;
5163;SDS011;2601;50.224;10.126;2022-10-16T03:41:44;2.90;;;1.77;;
5163;SDS011;2601;50.224;10.126;2022-10-16T03:44:11;1.23;;;1.10;;
5163;SDS011;2601;50.224;10.126;2022-10-16T03:46:37;2.43;;;1.20;;
5163;SDS011;2601;50.224;10.126;2022-10-16T03:49:03;2.00;;;1.10;;
5163;SDS011;2601;50.224;10.126;2022-10-16T03:51:28;2.30;;;1.80;;
5163;SDS011;2601;50.224;10.126;2022-10-16T03:53:54;1.33;;;1.10;;
5163;SDS011;2601;50.224;10.126;2022-10-16T03:56:20;3.00;;;1.40;;
5163;SDS011;2601;50.224;10.126;2022-10-16T03:58:46;1.40;;;1.07;;
5163;SDS011;2601;50.224;10.126;2022-10-16T04:01:11;3.53;;;1.10;;
5163;SDS011;2601;50.224;10.126;2022-10-16T04:03:37;3.90;;;1.00;;
5163;SDS011;2601;50.224;10.126;2022-10-16T04:06:03;3.67;;;1.30;;
5163;SDS011;2601;50.224;10.126;2022-10-16T04:08:28;1.03;;;0.93;;
5163;SDS011;2601;50.224;10.126;2022-10-16T04:10:54;4.40;;;1.10;;
5163;SDS011;2601;50.224;10.126;2022-10-16T04:13:20;4.50;;;1.17;;
5163;SDS011;2601;50.224;10.126;2022-10-16T04:15:46;1.53;;;1.03;;
5163;SDS011;2601;50.224;10.126;2022-10-16T04:18:11;2.80;;;1.00;;
5163;SDS011;2601;50.224;10.126;2022-10-16T04:20:37;1.53;;;1.43;;
5163;SDS011;2601;50.224;10.126;2022-10-16T04:23:03;1.20;;;1.10;;
5163;SDS011;2601;50.224;10.126;2022-10-16T04:25:29;4.50;;;1.27;;
5163;SDS011;2601;50.224;10.126;2022-10-16T04:27:55;1.57;;;1.10;;
5163;SDS011;2601;50.224;10.126;2022-10-16T04:30:22;2.03;;;1.17;;
5163;SDS011;2601;50.224;10.126;2022-10-16T04:32:48;3.10;;;1.20;;
5163;SDS011;2601;50.224;10.126;2022-10-16T04:35:15;4.80;;;1.60;;
5163;SDS011;2601;50.224;10.126;2022-10-16T04:37:42;3.90;;;1.50;;
5163;SDS011;2601;50.224;10.126;2022-10-16T04:40:07;1.30;;;1.20;;
5163;SDS011;2601;50.224;10.126;2022-10-16T04:42:33;2.70;;;1.60;;
5163;SDS011;2601;50.224;10.126;2022-10-16T04:44:59;13.60;;;1.40;;
5163;SDS011;2601;50.224;10.126;2022-10-16T04:47:25;2.13;;;1.53;;
5163;SDS011;2601;50.224;10.126;2022-10-16T04:49:50;1.87;;;1.77;;
5163;SDS011;2601;50.224;10.126;2022-10-16T04:52:16;3.50;;;1.80;;
5163;SDS011;2601;50.224;10.126;2022-10-16T04:54:43;3.83;;;2.00;;
5163;SDS011;2601;50.224;10.126;2022-10-16T04:57:10;7.47;;;1.63;;
5163;SDS011;2601;50.224;10.126;2022-10-16T04:59:36;1.97;;;1.47;;
5163;SDS011;2601;50.224;10.126;2022-10-16T05:02:02;3.73;;;1.60;;
5163;SDS011;2601;50.224;10.126;2022-10-16T05:04:28;1.50;;;1.40;;
5163;SDS011;2601;50.224;10.126;2022-10-16T05:06:57;1.60;;;1.50;;
5163;SDS011;2601;50.224;10.126;2022-10-16T05:09:23;3.23;;;1.50;;
5163;SDS011;2601;50.224;10.126;2022-10-16T05:11:48;8.37;;;2.40;;
5163;SDS011;2601;50.224;10.126;2022-10-16T05:14:14;2.83;;;2.60;;
5163;SDS011;2601;50.224;10.126;2022-10-16T05:16:40;2.63;;;2.43;;
5163;SDS011;2601;50.224;10.126;2022-10-16T05:19:06;4.33;;;2.57;;
5163;SDS011;2601;50.224;10.126;2022-10-16T05:21:31;2.47;;;1.93;;
5163;SDS011;2601;50.224;10.126;2022-10-16T05:23:57;5.30;;;3.30;;
5163;SDS011;2601;50.224;10.126;2022-10-16T05:26:23;4.80;;;4.50;;
5163;SDS011;2601;50.224;10.126;2022-10-16T05:28:49;5.73;;;5.33;;
5163;SDS011;2601;50.224;10.126;2022-10-16T05:31:14;3.67;;;3.47;;
5163;SDS011;2601;50.224;10.126;2022-10-16T05:33:40;1.97;;;1.87;;
5163;SDS011;2601;50.224;10.126;2022-10-16T05:36:07;2.67;;;2.57;;
5163;SDS011;2601;50.224;10.126;2022-10-16T05:38:34;3.23;;;3.03;;
5163;SDS011;2601;50.224;10.126;2022-10-16T05:41:00;6.73;;;2.47;;
5163;SDS011;2601;50.224;10.126;2022-10-16T05:43:27;2.43;;;2.30;;
5163;SDS011;2601;50.224;10.126;2022-10-16T05:45:57;3.43;;;3.23;;
5163;SDS011;2601;50.224;10.126;2022-10-16T05:48:24;3.37;;;1.87;;
5163;SDS011;2601;50.224;10.126;2022-10-16T05:51:00;2.37;;;2.13;;
5163;SDS011;2601;50.224;10.126;2022-10-16T05:53:29;2.57;;;2.40;;
5163;SDS011;2601;50.224;10.126;2022-10-16T05:55:56;15.83;;;3.97;;
5163;SDS011;2601;50.224;10.126;2022-10-16T05:58:22;3.37;;;2.63;;
5163;SDS011;2601;50.224;10.126;2022-10-16T06:00:52;3.30;;;3.10;;
5163;SDS011;2601;50.224;10.126;2022-10-16T06:03:22;3.23;;;2.90;;
5163;SDS011;2601;50.224;10.126;2022-10-16T06:05:48;5.13;;;2.70;;
5163;SDS011;2601;50.224;10.126;2022-10-16T06:08:15;3.17;;;2.87;;
5163;SDS011;2601;50.224;10.126;2022-10-16T06:10:40;3.87;;;3.47;;
5163;SDS011;2601;50.224;10.126;2022-10-16T06:13:07;5.47;;;3.20;;
5163;SDS011;2601;50.224;10.126;2022-10-16T06:15:32;6.20;;;2.60;;
5163;SDS011;2601;50.224;10.126;2022-10-16T06:17:58;5.60;;;3.40;;
5163;SDS011;2601;50.224;10.126;2022-10-16T06:20:24;3.03;;;2.80;;
5163;SDS011;2601;50.224;10.126;2022-10-16T06:22:49;3.00;;;2.80;;
5163;SDS011;2601;50.224;10.126;2022-10-16T06:25:15;2.73;;;2.53;;
5163;SDS011;2601;50.224;10.126;2022-10-16T06:27:41;5.23;;;2.40;;
5163;SDS011;2601;50.224;10.126;2022-10-16T06:30:07;4.30;;;2.60;;
5163;SDS011;2601;50.224;10.126;2022-10-16T06:32:33;6.80;;;3.00;;
5163;SDS011;2601;50.224;10.126;2022-10-16T06:35:00;3.97;;;2.20;;
5163;SDS011;2601;50.224;10.126;2022-10-16T06:37:26;2.90;;;2.70;;
5163;SDS011;2601;50.224;10.126;2022-10-16T06:39:52;6.30;;;3.07;;
5163;SDS011;2601;50.224;10.126;2022-10-16T06:42:18;3.53;;;3.33;;
5163;SDS011;2601;50.224;10.126;2022-10-16T06:44:44;4.50;;;4.20;;
5163;SDS011;2601;50.224;10.126;2022-10-16T06:47:10;6.17;;;3.67;;
5163;SDS011;2601;50.224;10.126;2022-10-16T06:49:36;4.63;;;4.17;;
5163;SDS011;2601;50.224;10.126;2022-10-16T06:52:01;9.70;;;4.80;;
5163;SDS011;2601;50.224;10.126;2022-10-16T06:54:28;5.50;;;5.00;;
5163;SDS011;2601;50.224;10.126;2022-10-16T06:56:53;10.17;;;5.40;;
5163;SDS011;2601;50.224;10.126;2022-10-16T06:59:20;6.47;;;5.87;;
5163;SDS011;2601;50.224;10.126;2022-10-16T07:01:46;5.77;;;5.27;;
5163;SDS011;2601;50.224;10.126;2022-10-16T07:04:12;10.10;;;5.47;;
5163;SDS011;2601;50.224;10.126;2022-10-16T07:06:38;5.67;;;5.03;;
5163;SDS011;2601;50.224;10.126;2022-10-16T07:09:06;5.53;;;5.00;;
5163;SDS011;2601;50.224;10.126;2022-10-16T07:11:34;5.90;;;4.20;;
5163;SDS011;2601;50.224;10.126;2022-10-16T07:14:01;6.67;;;4.77;;
5163;SDS011;2601;50.224;10.126;2022-10-16T07:16:28;6.77;;;4.30;;
5163;SDS011;2601;50.224;10.126;2022-10-16T07:18:56;5.27;;;4.87;;
5163;SDS011;2601;50.224;10.126;2022-10-16T07:21:24;4.53;;;4.23;;
5163;SDS011;2601;50.224;10.126;2022-10-16T07:23:51;5.00;;;4.30;;
5163;SDS011;2601;50.224;10.126;2022-10-16T07:26:22;7.20;;;5.83;;
5163;SDS011;2601;50.224;10.126;2022-10-16T07:28:49;6.50;;;5.90;;
5163;SDS011;2601;50.224;10.126;2022-10-16T07:31:16;5.27;;;4.47;;
5163;SDS011;2601;50.224;10.126;2022-10-16T07:33:43;4.67;;;4.37;;
5163;SDS011;2601;50.224;10.126;2022-10-16T07:36:10;6.07;;;3.40;;
5163;SDS011;2601;50.224;10.126;2022-10-16T07:38:37;3.53;;;3.33;;
5163;SDS011;2601;50.224;10.126;2022-10-16T07:41:04;11.20;;;6.70;;
5163;SDS011;2601;50.224;10.126;2022-10-16T07:43:35;7.53;;;4.83;;
5163;SDS011;2601;50.224;10.126;2022-10-16T07:46:01;6.63;;;5.77;;
5163;SDS011;2601;50.224;10.126;2022-10-16T07:48:28;9.27;;;7.10;;
5163;SDS011;2601;50.224;10.126;2022-10-16T07:50:59;6.43;;;4.60;;
5163;SDS011;2601;50.224;10.126;2022-10-16T07:53:29;4.90;;;3.27;;
5163;SDS011;2601;50.224;10.126;2022-10-16T07:55:59;3.10;;;2.13;;
5163;SDS011;2601;50.224;10.126;2022-10-16T07:58:27;2.07;;;1.97;;
5163;SDS011;2601;50.224;10.126;2022-10-16T08:00:53;8.50;;;2.10;;
5163;SDS011;2601;50.224;10.126;2022-10-16T08:03:19;2.17;;;2.03;;
5163;SDS011;2601;50.224;10.126;2022-10-16T08:05:45;10.10;;;8.73;;
5163;SDS011;2601;50.224;10.126;2022-10-16T08:08:13;3.97;;;2.37;;
5163;SDS011;2601;50.224;10.126;2022-10-16T08:10:39;6.17;;;2.50;;
5163;SDS011;2601;50.224;10.126;2022-10-16T08:13:05;4.03;;;2.07;;
5163;SDS011;2601;50.224;10.126;2022-10-16T08:15:31;5.47;;;2.90;;
5163;SDS011;2601;50.224;10.126;2022-10-16T08:17:57;6.80;;;2.30;;
5163;SDS011;2601;50.224;10.126;2022-10-16T08:20:28;6.53;;;2.70;;
5163;SDS011;2601;50.224;10.126;2022-10-16T08:22:55;9.70;;;4.90;;
5163;SDS011;2601;50.224;10.126;2022-10-16T08:25:21;2.87;;;2.67;;
5163;SDS011;2601;50.224;10.126;2022-10-16T08:27:48;8.20;;;7.50;;
5163;SDS011;2601;50.224;10.126;2022-10-16T08:30:14;5.63;;;3.20;;
5163;SDS011;2601;50.224;10.126;2022-10-16T08:32:40;3.30;;;2.20;;
5163;SDS011;2601;50.224;10.126;2022-10-16T08:35:09;3.10;;;2.80;;
5163;SDS011;2601;50.224;10.126;2022-10-16T08:37:35;4.23;;;2.20;;
5163;SDS011;2601;50.224;10.126;2022-10-16T08:40:02;2.63;;;2.43;;
5163;SDS011;2601;50.224;10.126;2022-10-16T08:47:44;2.37;;;2.20;;
5163;SDS011;2601;50.224;10.126;2022-10-16T08:50:21;4.00;;;3.60;;
5163;SDS011;2601;50.224;10.126;2022-10-16T08:52:53;5.93;;;2.43;;
5163;SDS011;2601;50.224;10.126;2022-10-16T08:55:30;1.97;;;1.87;;
5163;SDS011;2601;50.224;10.126;2022-10-16T08:58:02;6.50;;;2.40;;
5163;SDS011;2601;50.224;10.126;2022-10-16T09:00:54;3.30;;;2.30;;
5163;SDS011;2601;50.224;10.126;2022-10-16T09:20:06;3.63;;;2.00;;
5163;SDS011;2601;50.224;10.126;2022-10-16T09:22:34;4.60;;;2.30;;
5163;SDS011;2601;50.224;10.126;2022-10-16T09:25:01;9.00;;;6.60;;
5163;SDS011;2601;50.224;10.126;2022-10-16T09:27:37;23.40;;;3.63;;
5163;SDS011;2601;50.224;10.126;2022-10-16T09:30:10;3.70;;;2.40;;
5163;SDS011;2601;50.224;10.126;2022-10-16T09:32:40;3.30;;;2.83;;
5163;SDS011;2601;50.224;10.126;2022-10-16T09:35:11;17.27;;;9.73;;
5163;SDS011;2601;50.224;10.126;2022-10-16T09:37:42;17.30;;;9.23;;
5163;SDS011;2601;50.224;10.126;2022-10-16T09:40:23;11.80;;;6.83;;
5163;SDS011;2601;50.224;10.126;2022-10-16T09:45:56;5.30;;;4.23;;
5163;SDS011;2601;50.224;10.126;2022-10-16T09:48:30;5.30;;;3.77;;
5163;SDS011;2601;50.224;10.126;2022-10-16T09:51:19;5.93;;;3.87;;
5163;SDS011;2601;50.224;10.126;2022-10-16T09:53:58;6.57;;;4.30;;
5163;SDS011;2601;50.224;10.126;2022-10-16T09:58:54;7.47;;;3.70;;
5163;SDS011;2601;50.224;10.126;2022-10-16T10:01:24;5.53;;;3.30;;
5163;SDS011;2601;50.224;10.126;2022-10-16T10:04:00;6.57;;;3.80;;
5163;SDS011;2601;50.224;10.126;2022-10-16T10:06:29;8.33;;;5.00;;
5163;SDS011;2601;50.224;10.126;2022-10-16T10:14:39;16.87;;;10.60;;
5163;SDS011;2601;50.224;10.126;2022-10-16T10:43:18;8.80;;;5.87;;
5163;SDS011;2601;50.224;10.126;2022-10-16T10:54:54;6.13;;;2.47;;
5163;SDS011;2601;50.224;10.126;2022-10-16T10:57:30;3.93;;;3.00;;
5163;SDS011;2601;50.224;10.126;2022-10-16T11:00:20;4.03;;;2.33;;
5163;SDS011;2601;50.224;10.126;2022-10-16T11:05:45;7.60;;;2.07;;
5163;SDS011;2601;50.224;10.126;2022-10-16T11:10:58;2.70;;;2.33;;
5163;SDS011;2601;50.224;10.126;2022-10-16T11:13:36;5.00;;;2.17;;
5163;SDS011;2601;50.224;10.126;2022-10-16T11:16:17;3.73;;;2.40;;
5163;SDS011;2601;50.224;10.126;2022-10-16T11:21:34;2.60;;;2.07;;
5163;SDS011;2601;50.224;10.126;2022-10-16T11:24:16;2.33;;;2.13;;
5163;SDS011;2601;50.224;10.126;2022-10-16T11:27:04;1.70;;;1.60;;
5163;SDS011;2601;50.224;10.126;2022-10-16T11:29:33;5.73;;;1.50;;
5163;SDS011;2601;50.224;10.126;2022-10-16T11:32:16;2.13;;;1.80;;
5163;SDS011;2601;50.224;10.126;2022-10-16T11:34:52;5.10;;;1.90;;
5163;SDS011;2601;50.224;10.126;2022-10-16T11:37:28;5.07;;;1.50;;
5163;SDS011;2601;50.224;10.126;2022-10-16T11:43:05;1.57;;;1.47;;
5163;SDS011;2601;50.224;10.126;2022-10-16T11:46:19;4.90;;;1.80;;
5163;SDS011;2601;50.224;10.126;2022-10-16T11:51:45;3.37;;;2.10;;
5163;SDS011;2601;50.224;10.126;2022-10-16T11:56:46;3.10;;;1.50;;
5163;SDS011;2601;50.224;10.126;2022-10-16T11:59:30;4.43;;;1.63;;
5163;SDS011;2601;50.224;10.126;2022-10-16T12:05:20;3.40;;;1.40;;
5163;SDS011;2601;50.224;10.126;2022-10-16T12:10:29;2.57;;;1.67;;
5163;SDS011;2601;50.224;10.126;2022-10-16T12:13:02;8.73;;;2.03;;
5163;SDS011;2601;50.224;10.126;2022-10-16T12:15:46;2.53;;;1.37;;
5163;SDS011;2601;50.224;10.126;2022-10-16T12:18:23;4.50;;;1.83;;
5163;SDS011;2601;50.224;10.126;2022-10-16T12:20:56;1.47;;;1.37;;
5163;SDS011;2601;50.224;10.126;2022-10-16T12:23:32;6.97;;;2.00;;
5163;SDS011;2601;50.224;10.126;2022-10-16T12:26:03;3.10;;;1.50;;
5163;SDS011;2601;50.224;10.126;2022-10-16T12:28:30;4.83;;;1.20;;
5163;SDS011;2601;50.224;10.126;2022-10-16T12:30:59;1.97;;;1.77;;
5163;SDS011;2601;50.224;10.126;2022-10-16T12:33:34;1.57;;;1.47;;
5163;SDS011;2601;50.224;10.126;2022-10-16T12:36:03;2.00;;;1.57;;
5163;SDS011;2601;50.224;10.126;2022-10-16T12:38:38;8.03;;;1.77;;
5163;SDS011;2601;50.224;10.126;2022-10-16T12:41:11;3.60;;;1.43;;
5163;SDS011;2601;50.224;10.126;2022-10-16T12:43:46;2.43;;;1.83;;
5163;SDS011;2601;50.224;10.126;2022-10-16T12:48:39;1.80;;;1.60;;
5163;SDS011;2601;50.224;10.126;2022-10-16T12:51:12;2.27;;;2.07;;
5163;SDS011;2601;50.224;10.126;2022-10-16T12:56:57;2.00;;;1.80;;
5163;SDS011;2601;50.224;10.126;2022-10-16T13:25:23;2.07;;;1.20;;
5163;SDS011;2601;50.224;10.126;2022-10-16T13:28:08;3.93;;;1.30;;
5163;SDS011;2601;50.224;10.126;2022-10-16T13:30:40;1.93;;;1.30;;
5163;SDS011;2601;50.224;10.126;2022-10-16T13:33:17;2.27;;;1.20;;
5163;SDS011;2601;50.224;10.126;2022-10-16T13:35:49;1.93;;;1.40;;
5163;SDS011;2601;50.224;10.126;2022-10-16T13:38:23;3.37;;;1.30;;
5163;SDS011;2601;50.224;10.126;2022-10-16T13:41:02;8.37;;;1.87;;
5163;SDS011;2601;50.224;10.126;2022-10-16T13:46:20;1.30;;;1.20;;
5163;SDS011;2601;50.224;10.126;2022-10-16T13:48:57;2.70;;;1.20;;
5163;SDS011;2601;50.224;10.126;2022-10-16T13:51:26;1.93;;;1.33;;
5163;SDS011;2601;50.224;10.126;2022-10-16T13:53:54;3.73;;;1.27;;
5163;SDS011;2601;50.224;10.126;2022-10-16T13:56:22;1.90;;;1.73;;
5163;SDS011;2601;50.224;10.126;2022-10-16T13:59:02;3.40;;;1.20;;
5163;SDS011;2601;50.224;10.126;2022-10-16T14:01:29;4.80;;;1.20;;
5163;SDS011;2601;50.224;10.126;2022-10-16T14:04:00;2.90;;;1.60;;
5163;SDS011;2601;50.224;10.126;2022-10-16T14:06:31;6.03;;;1.60;;
5163;SDS011;2601;50.224;10.126;2022-10-16T14:11:29;1.80;;;1.27;;
5163;SDS011;2601;50.224;10.126;2022-10-16T14:13:55;1.60;;;1.50;;
5163;SDS011;2601;50.224;10.126;2022-10-16T14:16:25;1.30;;;1.20;;
5163;SDS011;2601;50.224;10.126;2022-10-16T14:18:58;2.23;;;1.07;;
5163;SDS011;2601;50.224;10.126;2022-10-16T14:21:31;4.60;;;2.60;;
5163;SDS011;2601;50.224;10.126;2022-10-16T14:23:57;1.40;;;1.30;;
5163;SDS011;2601;50.224;10.126;2022-10-16T14:26:24;3.10;;;1.40;;
5163;SDS011;2601;50.224;10.126;2022-10-16T14:29:03;2.90;;;1.10;;
5163;SDS011;2601;50.224;10.126;2022-10-16T14:31:38;2.97;;;1.10;;
5163;SDS011;2601;50.224;10.126;2022-10-16T14:34:22;15.97;;;1.40;;
5163;SDS011;2601;50.224;10.126;2022-10-16T14:36:49;1.47;;;1.10;;
5163;SDS011;2601;50.224;10.126;2022-10-16T14:39:22;2.03;;;1.43;;
5163;SDS011;2601;50.224;10.126;2022-10-16T14:41:51;1.60;;;1.07;;
5163;SDS011;2601;50.224;10.126;2022-10-16T14:44:19;3.50;;;1.17;;
5163;SDS011;2601;50.224;10.126;2022-10-16T14:46:51;4.80;;;1.40;;
5163;SDS011;2601;50.224;10.126;2022-10-16T14:49:17;2.87;;;2.00;;
5163;SDS011;2601;50.224;10.126;2022-10-16T14:51:45;3.73;;;1.97;;
5163;SDS011;2601;50.224;10.126;2022-10-16T14:54:12;1.93;;;1.83;;
5163;SDS011;2601;50.224;10.126;2022-10-16T14:56:47;2.97;;;2.47;;
5163;SDS011;2601;50.224;10.126;2022-10-16T15:01:57;3.57;;;2.80;;
5163;SDS011;2601;50.224;10.126;2022-10-16T15:04:23;8.47;;;2.70;;
5163;SDS011;2601;50.224;10.126;2022-10-16T15:06:49;45.07;;;25.13;;
5163;SDS011;2601;50.224;10.126;2022-10-16T15:09:14;127.17;;;68.73;;
5163;SDS011;2601;50.224;10.126;2022-10-16T15:11:40;43.67;;;27.20;;
5163;SDS011;2601;50.224;10.126;2022-10-16T15:14:09;18.77;;;10.63;;
5163;SDS011;2601;50.224;10.126;2022-10-16T15:16:37;6.40;;;4.67;;
5163;SDS011;2601;50.224;10.126;2022-10-16T15:19:03;9.27;;;5.20;;
5163;SDS011;2601;50.224;10.126;2022-10-16T15:21:30;4.33;;;3.90;;
5163;SDS011;2601;50.224;10.126;2022-10-16T15:23:57;7.80;;;5.97;;
5163;SDS011;2601;50.224;10.126;2022-10-16T15:26:24;5.27;;;3.60;;
5163;SDS011;2601;50.224;10.126;2022-10-16T15:28:51;5.60;;;5.00;;
5163;SDS011;2601;50.224;10.126;2022-10-16T15:31:17;18.33;;;16.43;;
5163;SDS011;2601;50.224;10.126;2022-10-16T15:33:43;12.70;;;11.30;;
5163;SDS011;2601;50.224;10.126;2022-10-16T15:36:13;8.73;;;6.67;;
5163;SDS011;2601;50.224;10.126;2022-10-16T15:38:38;10.37;;;4.27;;
5163;SDS011;2601;50.224;10.126;2022-10-16T15:41:04;6.97;;;4.70;;
5163;SDS011;2601;50.224;10.126;2022-10-16T15:43:30;8.57;;;4.20;;
5163;SDS011;2601;50.224;10.126;2022-10-16T15:45:59;12.73;;;4.17;;
5163;SDS011;2601;50.224;10.126;2022-10-16T15:48:26;10.00;;;3.20;;
5163;SDS011;2601;50.224;10.126;2022-10-16T15:50:52;11.73;;;2.40;;
5163;SDS011;2601;50.224;10.126;2022-10-16T15:53:18;13.80;;;3.47;;
5163;SDS011;2601;50.224;10.126;2022-10-16T15:55:44;9.30;;;5.00;;
5163;SDS011;2601;50.224;10.126;2022-10-16T15:58:09;4.97;;;4.50;;
5163;SDS011;2601;50.224;10.126;2022-10-16T16:00:35;14.03;;;5.60;;
5163;SDS011;2601;50.224;10.126;2022-10-16T16:03:01;12.00;;;7.40;;
5163;SDS011;2601;50.224;10.126;2022-10-16T16:05:27;5.30;;;3.20;;
5163;SDS011;2601;50.224;10.126;2022-10-16T16:07:52;2.90;;;2.70;;
5163;SDS011;2601;50.224;10.126;2022-10-16T16:10:18;5.47;;;2.37;;
5163;SDS011;2601;50.224;10.126;2022-10-16T16:12:49;2.83;;;2.60;;
5163;SDS011;2601;50.224;10.126;2022-10-16T16:15:18;7.30;;;2.60;;
5163;SDS011;2601;50.224;10.126;2022-10-16T16:17:45;7.80;;;2.30;;
5163;SDS011;2601;50.224;10.126;2022-10-16T16:20:11;3.07;;;2.87;;
5163;SDS011;2601;50.224;10.126;2022-10-16T16:22:37;15.43;;;3.83;;
5163;SDS011;2601;50.224;10.126;2022-10-16T16:25:03;7.53;;;3.60;;
5163;SDS011;2601;50.224;10.126;2022-10-16T16:27:28;9.30;;;3.10;;
5163;SDS011;2601;50.224;10.126;2022-10-16T16:29:58;2.57;;;2.37;;
5163;SDS011;2601;50.224;10.126;2022-10-16T16:32:24;4.10;;;2.47;;
5163;SDS011;2601;50.224;10.126;2022-10-16T16:34:50;7.10;;;2.70;;
5163;SDS011;2601;50.224;10.126;2022-10-16T16:37:15;10.47;;;3.00;;
5163;SDS011;2601;50.224;10.126;2022-10-16T16:39:42;6.10;;;2.60;;
5163;SDS011;2601;50.224;10.126;2022-10-16T16:42:07;8.63;;;2.93;;
5163;SDS011;2601;50.224;10.126;2022-10-16T16:44:35;8.60;;;2.33;;
5163;SDS011;2601;50.224;10.126;2022-10-16T16:47:01;3.60;;;2.77;;
5163;SDS011;2601;50.224;10.126;2022-10-16T16:49:28;5.00;;;3.23;;
5163;SDS011;2601;50.224;10.126;2022-10-16T16:51:53;4.30;;;3.90;;
5163;SDS011;2601;50.224;10.126;2022-10-16T16:54:19;9.00;;;5.20;;
5163;SDS011;2601;50.224;10.126;2022-10-16T16:56:45;15.97;;;9.10;;
5163;SDS011;2601;50.224;10.126;2022-10-16T16:59:12;10.10;;;6.07;;
5163;SDS011;2601;50.224;10.126;2022-10-16T17:01:40;11.80;;;6.53;;
5163;SDS011;2601;50.224;10.126;2022-10-16T17:04:06;9.03;;;6.90;;
5163;SDS011;2601;50.224;10.126;2022-10-16T17:06:32;10.80;;;6.20;;
5163;SDS011;2601;50.224;10.126;2022-10-16T17:09:00;13.93;;;8.97;;
5163;SDS011;2601;50.224;10.126;2022-10-16T17:11:27;17.93;;;10.40;;
5163;SDS011;2601;50.224;10.126;2022-10-16T17:13:54;43.30;;;24.07;;
5163;SDS011;2601;50.224;10.126;2022-10-16T17:16:32;26.03;;;16.80;;
5163;SDS011;2601;50.224;10.126;2022-10-16T17:19:04;9.20;;;7.60;;
5163;SDS011;2601;50.224;10.126;2022-10-16T17:21:31;8.93;;;6.00;;
5163;SDS011;2601;50.224;10.126;2022-10-16T17:23:57;16.83;;;9.73;;
5163;SDS011;2601;50.224;10.126;2022-10-16T17:26:23;22.73;;;15.30;;
5163;SDS011;2601;50.224;10.126;2022-10-16T17:28:53;21.40;;;14.07;;
5163;SDS011;2601;50.224;10.126;2022-10-16T17:31:21;27.77;;;14.37;;
5163;SDS011;2601;50.224;10.126;2022-10-16T17:33:48;26.60;;;19.90;;
5163;SDS011;2601;50.224;10.126;2022-10-16T17:36:16;42.00;;;26.40;;